Time;durP1;ratioP1;P1;durP2;ratioP2;P2;SDS_P1;SDS_P2;PMS_P1;PMS_P2;Temp;Humidity;BMP_temperature;BMP_pressure;BME280_temperature;BME280_humidity;BME280_pressure;Samples;Min_cycle;Max_cycle;Signal;HPM_P1;HPM_P2
2022/07/18 00:01:38;;;;;;;6.75;4.90;;;17.10;99.90;;;;;;5020258;28;20056;-80
2022/07/18 00:04:04;;;;;;;8.32;5.40;;;17.10;99.90;;;;;;5022127;28;20052;-80
2022/07/18 00:06:29;;;;;;;7.78;5.53;;;17.00;99.90;;;;;;5020485;28;20057;-80
2022/07/18 00:08:55;;;;;;;7.90;5.88;;;17.00;99.90;;;;;;5010341;28;20044;-80
2022/07/18 00:11:21;;;;;;;8.25;5.82;;;17.00;99.90;;;;;;5020002;28;20045;-80
2022/07/18 00:13:47;;;;;;;6.70;5.65;;;16.90;99.90;;;;;;5021718;28;20381;-81
2022/07/18 00:16:13;;;;;;;8.38;5.60;;;16.80;99.90;;;;;;5025051;28;20150;-80
2022/07/18 00:18:39;;;;;;;7.50;5.75;;;16.80;99.90;;;;;;5019220;28;20048;-80
2022/07/18 00:21:05;;;;;;;6.93;6.10;;;16.80;99.90;;;;;;5037127;28;20052;-81
2022/07/18 00:23:31;;;;;;;8.07;5.55;;;16.80;99.90;;;;;;5017551;28;20048;-81
2022/07/18 00:25:56;;;;;;;9.80;7.32;;;16.80;99.90;;;;;;5004086;28;20055;-81
2022/07/18 00:28:22;;;;;;;8.43;6.15;;;16.70;99.90;;;;;;5004255;28;20099;-81
2022/07/18 00:30:48;;;;;;;7.13;5.75;;;16.60;99.90;;;;;;5021544;28;20040;-81
2022/07/18 00:33:14;;;;;;;9.23;6.53;;;16.60;99.90;;;;;;5007681;28;20052;-81
2022/07/18 00:35:39;;;;;;;9.57;6.30;;;16.60;99.90;;;;;;5036111;28;20514;-81
2022/07/18 00:38:05;;;;;;;8.93;6.32;;;16.60;99.90;;;;;;4992326;28;20131;-80
2022/07/18 00:40:32;;;;;;;10.68;7.15;;;16.50;99.90;;;;;;4999218;28;20487;-81
2022/07/18 00:42:58;;;;;;;8.48;6.28;;;16.50;99.90;;;;;;5015099;28;20072;-81
2022/07/18 00:45:24;;;;;;;7.65;6.30;;;16.40;99.90;;;;;;5035787;28;20531;-81
2022/07/18 00:47:51;;;;;;;7.75;6.22;;;16.40;99.90;;;;;;5019560;28;20522;-81
2022/07/18 00:50:18;;;;;;;8.10;7.03;;;16.40;99.90;;;;;;5019528;28;20049;-80
2022/07/18 00:52:44;;;;;;;8.65;6.07;;;16.40;99.90;;;;;;5020039;28;20052;-80
2022/07/18 00:55:10;;;;;;;8.30;6.68;;;16.40;99.90;;;;;;5006136;28;20155;-80
2022/07/18 00:57:38;;;;;;;8.15;6.90;;;16.40;99.90;;;;;;5014252;28;20040;-81
2022/07/18 01:02:53;;;;;;;7.82;6.78;;;16.40;99.90;;;;;;5039713;28;20385;-81
2022/07/18 01:05:19;;;;;;;8.77;6.65;;;16.40;99.90;;;;;;5006971;28;20076;-81
2022/07/18 01:07:44;;;;;;;8.25;6.85;;;16.40;99.90;;;;;;5007405;28;20041;-81
2022/07/18 01:10:10;;;;;;;8.50;6.13;;;16.40;99.90;;;;;;5022560;28;20041;-81
2022/07/18 01:12:36;;;;;;;9.65;7.30;;;16.40;99.90;;;;;;5020763;28;20049;-80
2022/07/18 01:15:03;;;;;;;9.65;6.60;;;16.40;99.90;;;;;;5019768;28;20045;-80
2022/07/18 01:17:29;;;;;;;8.43;6.90;;;16.40;99.90;;;;;;5024502;28;20072;-80
2022/07/18 01:19:54;;;;;;;9.77;7.13;;;16.40;99.90;;;;;;5037113;28;20082;-80
2022/07/18 01:22:21;;;;;;;8.85;7.70;;;16.40;99.90;;;;;;5024297;28;20638;-80
2022/07/18 01:24:47;;;;;;;9.90;7.25;;;16.30;99.90;;;;;;5035501;28;20131;-80
2022/07/18 01:27:15;;;;;;;9.65;6.88;;;16.30;99.90;;;;;;5039328;28;20103;-79
2022/07/18 01:29:41;;;;;;;9.63;7.25;;;16.30;99.90;;;;;;5022084;28;20063;-80
2022/07/18 01:32:08;;;;;;;7.45;6.63;;;16.30;99.90;;;;;;5023779;28;20060;-81
2022/07/18 01:34:34;;;;;;;9.15;6.82;;;16.30;99.90;;;;;;5022400;28;20063;-80
2022/07/18 01:37:03;;;;;;;8.65;6.93;;;16.20;99.90;;;;;;5029779;28;20044;-81
2022/07/18 01:39:29;;;;;;;8.05;6.88;;;16.20;99.90;;;;;;5027961;28;20045;-80
2022/07/18 01:41:59;;;;;;;12.85;7.78;;;16.20;99.90;;;;;;5023544;28;20055;-80
2022/07/18 01:44:25;;;;;;;7.63;6.60;;;16.20;99.90;;;;;;5039488;28;21025;-80
2022/07/18 01:46:51;;;;;;;8.50;6.75;;;16.20;99.90;;;;;;5023986;28;20048;-80
2022/07/18 01:49:18;;;;;;;8.07;6.18;;;16.20;99.90;;;;;;5040123;28;20095;-80
2022/07/18 01:51:51;;;;;;;9.45;6.63;;;16.20;99.90;;;;;;5023189;28;20076;-80
2022/07/18 01:54:23;;;;;;;7.57;6.35;;;16.20;99.90;;;;;;5025131;28;20050;-81
2022/07/18 01:56:49;;;;;;;11.13;7.13;;;16.10;99.90;;;;;;5035350;28;20045;-81
2022/07/18 01:59:16;;;;;;;9.32;6.93;;;16.20;99.90;;;;;;5039727;28;20060;-81
2022/07/18 02:01:41;;;;;;;7.93;6.82;;;16.10;99.90;;;;;;5038130;28;20040;-80
2022/07/18 02:04:07;;;;;;;8.13;6.80;;;16.10;99.90;;;;;;5023608;28;20053;-80
2022/07/18 02:06:33;;;;;;;8.18;6.85;;;16.10;99.90;;;;;;5005854;28;20048;-81
2022/07/18 02:08:58;;;;;;;9.38;6.90;;;16.00;99.90;;;;;;5022791;28;20128;-80
2022/07/18 02:11:24;;;;;;;10.27;7.20;;;16.00;99.90;;;;;;5001512;28;20055;-81
2022/07/18 02:13:50;;;;;;;9.23;8.00;;;16.00;99.90;;;;;;5038650;28;20550;-81
2022/07/18 02:16:16;;;;;;;8.57;7.30;;;16.00;99.90;;;;;;5023512;28;20060;-81
2022/07/18 02:18:42;;;;;;;9.60;7.00;;;15.90;99.90;;;;;;5020782;28;20127;-80
2022/07/18 02:21:07;;;;;;;10.93;7.68;;;16.00;99.90;;;;;;5036663;28;20075;-81
2022/07/18 02:23:34;;;;;;;9.27;7.40;;;15.90;99.90;;;;;;5022882;28;20044;-81
2022/07/18 02:26:00;;;;;;;9.35;7.30;;;15.90;99.90;;;;;;5019806;28;20058;-81
2022/07/18 02:28:26;;;;;;;8.20;6.93;;;15.90;99.90;;;;;;5005092;28;20040;-81
2022/07/18 02:30:52;;;;;;;8.23;7.18;;;15.90;99.90;;;;;;5000696;28;20048;-81
2022/07/18 02:33:18;;;;;;;9.90;7.53;;;15.90;99.90;;;;;;5038834;28;20127;-81
2022/07/18 02:35:44;;;;;;;10.93;6.80;;;15.90;99.90;;;;;;5005639;28;20518;-81
2022/07/18 02:38:10;;;;;;;11.05;7.50;;;15.80;99.90;;;;;;5039593;28;20098;-81
2022/07/18 02:40:36;;;;;;;9.05;6.95;;;15.80;99.90;;;;;;5021796;28;20045;-81
2022/07/18 02:43:02;;;;;;;8.35;7.10;;;15.80;99.90;;;;;;5022316;28;20048;-81
2022/07/18 02:45:28;;;;;;;9.30;6.80;;;15.80;99.90;;;;;;5021504;28;20161;-81
2022/07/18 02:47:54;;;;;;;8.85;6.95;;;15.80;99.90;;;;;;5018094;28;20048;-79
2022/07/18 02:50:20;;;;;;;8.30;6.50;;;15.80;99.90;;;;;;5021101;28;20403;-81
2022/07/18 02:52:46;;;;;;;7.68;6.70;;;15.70;99.90;;;;;;5021877;28;20063;-81
2022/07/18 02:55:13;;;;;;;7.70;6.88;;;15.80;99.90;;;;;;5029018;28;20044;-81
2022/07/18 02:57:39;;;;;;;9.25;6.53;;;15.80;99.90;;;;;;5023149;28;20052;-81
2022/07/18 03:00:10;;;;;;;9.10;7.18;;;15.80;99.90;;;;;;5017246;28;20052;-80
2022/07/18 03:02:36;;;;;;;10.77;6.88;;;15.80;99.90;;;;;;5019081;28;20487;-80
2022/07/18 03:05:03;;;;;;;9.13;6.78;;;15.80;99.90;;;;;;5018249;28;20064;-81
2022/07/18 03:07:29;;;;;;;9.02;6.78;;;15.70;99.90;;;;;;5017525;28;20122;-81
2022/07/18 03:09:55;;;;;;;8.15;6.18;;;15.70;99.90;;;;;;5002687;28;20047;-81
2022/07/18 03:12:20;;;;;;;7.72;6.15;;;15.80;99.90;;;;;;5038436;28;20041;-80
2022/07/18 03:14:46;;;;;;;7.55;6.30;;;15.80;99.90;;;;;;5021757;28;20053;-81
2022/07/18 03:17:12;;;;;;;8.00;6.43;;;15.70;99.90;;;;;;5037544;28;20052;-80
2022/07/18 03:19:38;;;;;;;10.85;6.57;;;15.70;99.90;;;;;;5022812;28;20144;-80
2022/07/18 03:22:04;;;;;;;9.23;6.28;;;15.70;99.90;;;;;;5007651;28;20068;-80
2022/07/18 03:24:30;;;;;;;8.10;6.40;;;15.70;99.90;;;;;;5004593;28;20067;-80
2022/07/18 03:26:56;;;;;;;9.63;6.18;;;15.70;99.90;;;;;;5021111;28;20055;-81
2022/07/18 03:29:23;;;;;;;8.20;6.43;;;15.70;99.90;;;;;;5022868;28;20049;-80
2022/07/18 03:31:48;;;;;;;8.27;6.40;;;15.70;99.90;;;;;;5037010;28;20037;-79
2022/07/18 03:34:14;;;;;;;8.60;5.97;;;15.70;99.90;;;;;;5022633;28;20102;-80
2022/07/18 03:36:41;;;;;;;9.63;6.13;;;15.70;99.90;;;;;;5026330;28;20055;-80
2022/07/18 03:39:08;;;;;;;7.75;5.75;;;15.70;99.90;;;;;;5021547;28;20076;-80
2022/07/18 03:41:35;;;;;;;8.35;6.10;;;15.60;99.90;;;;;;5036127;28;20049;-80
2022/07/18 03:44:01;;;;;;;8.60;6.20;;;15.60;99.90;;;;;;5004662;28;20867;-80
2022/07/18 03:46:26;;;;;;;9.82;5.65;;;15.60;99.90;;;;;;5043383;28;20056;-81
2022/07/18 03:48:52;;;;;;;9.02;5.80;;;15.60;99.90;;;;;;5021449;28;20044;-80
2022/07/18 03:51:18;;;;;;;7.10;5.68;;;15.60;99.90;;;;;;5022857;28;20047;-81
2022/07/18 03:53:44;;;;;;;8.77;5.72;;;15.60;99.90;;;;;;5020350;28;20106;-80
2022/07/18 03:56:10;;;;;;;8.60;5.82;;;15.60;99.90;;;;;;5025873;28;20056;-80
2022/07/18 03:58:36;;;;;;;9.18;6.07;;;15.60;99.90;;;;;;5024016;28;20562;-80
2022/07/18 04:01:01;;;;;;;8.55;5.68;;;15.60;99.90;;;;;;5018957;28;20083;-80
2022/07/18 04:03:27;;;;;;;8.38;5.25;;;15.60;99.90;;;;;;5035426;28;20159;-80
2022/07/18 04:05:53;;;;;;;7.07;5.38;;;15.60;99.90;;;;;;5016616;28;20467;-80
2022/07/18 04:08:18;;;;;;;8.90;5.60;;;15.60;99.90;;;;;;5004525;28;20053;-80
2022/07/18 04:10:44;;;;;;;9.00;5.95;;;15.70;99.90;;;;;;5020868;28;20046;-81
2022/07/18 04:13:10;;;;;;;8.35;6.32;;;15.70;99.90;;;;;;4999274;28;20066;-81
2022/07/18 04:15:37;;;;;;;10.88;6.63;;;15.70;99.90;;;;;;5037239;28;21262;-81
2022/07/18 04:18:06;;;;;;;8.82;5.68;;;15.70;99.90;;;;;;5020653;28;20103;-81
2022/07/18 04:20:33;;;;;;;7.35;6.07;;;15.70;99.90;;;;;;5020021;28;20156;-80
2022/07/18 04:23:01;;;;;;;8.85;6.20;;;15.80;99.90;;;;;;5020513;28;20079;-81
2022/07/18 04:25:29;;;;;;;9.05;5.50;;;15.80;99.90;;;;;;5035617;28;20041;-80
2022/07/18 04:27:55;;;;;;;9.48;6.03;;;15.80;99.90;;;;;;5031607;28;20051;-80
2022/07/18 04:30:23;;;;;;;8.63;6.20;;;15.80;99.90;;;;;;5038481;28;20796;-80
2022/07/18 04:32:50;;;;;;;8.40;6.20;;;15.90;99.90;;;;;;5038014;28;20078;-79
2022/07/18 04:35:16;;;;;;;9.30;6.30;;;15.90;99.90;;;;;;5039442;28;20041;-80
2022/07/18 04:37:42;;;;;;;8.40;5.78;;;15.90;99.90;;;;;;5042897;28;20044;-80
2022/07/18 04:40:09;;;;;;;8.20;5.85;;;16.00;99.90;;;;;;5027751;28;20129;-81
2022/07/18 04:42:36;;;;;;;8.93;6.47;;;16.00;99.90;;;;;;5023206;28;20057;-80
2022/07/18 04:45:03;;;;;;;9.05;6.47;;;16.40;99.90;;;;;;5025955;28;20057;-81
2022/07/18 04:47:29;;;;;;;8.32;6.18;;;16.00;99.90;;;;;;5024442;28;20048;-80
2022/07/18 04:49:55;;;;;;;7.82;6.18;;;16.00;99.90;;;;;;5027695;28;20060;-80
2022/07/18 04:52:22;;;;;;;9.10;6.38;;;16.00;99.90;;;;;;5026771;28;20048;-80
2022/07/18 04:54:48;;;;;;;7.25;5.80;;;16.10;99.90;;;;;;5043854;28;20105;-79
2022/07/18 04:57:14;;;;;;;7.38;5.95;;;16.10;99.90;;;;;;5012069;28;20040;-79
2022/07/18 04:59:41;;;;;;;9.13;5.97;;;16.10;99.90;;;;;;5011197;28;20494;-79
2022/07/18 05:02:08;;;;;;;9.88;6.60;;;16.10;99.90;;;;;;5007124;28;20067;-81
2022/07/18 05:04:34;;;;;;;8.02;6.20;;;16.20;99.90;;;;;;5042786;28;20056;-80
2022/07/18 05:07:00;;;;;;;9.05;6.22;;;16.20;99.90;;;;;;5025894;28;20136;-80
2022/07/18 05:09:27;;;;;;;9.43;6.18;;;16.20;99.90;;;;;;5042863;28;20118;-80
2022/07/18 05:11:52;;;;;;;8.43;6.07;;;16.30;99.90;;;;;;5006755;28;20047;-81
2022/07/18 05:14:18;;;;;;;8.88;5.82;;;16.30;99.90;;;;;;5005469;28;20400;-80
2022/07/18 05:16:44;;;;;;;10.23;6.10;;;16.40;99.90;;;;;;5005807;28;20093;-80
2022/07/18 05:19:10;;;;;;;7.85;5.75;;;16.40;99.90;;;;;;5027558;28;20066;-80
2022/07/18 05:21:35;;;;;;;9.13;5.88;;;16.50;99.90;;;;;;5028475;28;20550;-80
2022/07/18 05:24:01;;;;;;;7.90;5.90;;;16.50;99.90;;;;;;5019622;28;20040;-81
2022/07/18 05:26:27;;;;;;;8.05;6.07;;;16.60;99.90;;;;;;5043266;28;20470;-82
2022/07/18 05:28:52;;;;;;;8.93;6.32;;;16.60;99.90;;;;;;5006685;28;20044;-82
2022/07/18 05:31:18;;;;;;;10.32;5.38;;;16.70;99.90;;;;;;5028307;28;20129;-81
2022/07/18 05:33:44;;;;;;;9.70;5.90;;;16.80;99.90;;;;;;5020956;28;20414;-82
2022/07/18 05:36:10;;;;;;;9.57;6.53;;;16.60;99.90;;;;;;5011588;28;20499;-81
2022/07/18 05:38:36;;;;;;;8.90;5.78;;;16.90;99.90;;;;;;5014717;28;20048;-82
2022/07/18 05:41:01;;;;;;;7.82;5.40;;;17.00;99.90;;;;;;5010367;28;20049;-82
2022/07/18 05:43:27;;;;;;;9.80;5.72;;;17.10;99.90;;;;;;5006293;28;20059;-82
2022/07/18 05:45:53;;;;;;;9.52;5.85;;;17.10;99.90;;;;;;5006226;28;20449;-87
2022/07/18 05:48:43;;;;;;;7.65;5.45;;;17.20;99.90;;;;;;5029361;28;20063;-87
2022/07/18 05:54:48;;;;;;;13.73;5.93;;;17.40;99.90;;;;;;5035906;28;20071;-89
2022/07/18 05:57:14;;;;;;;10.43;6.55;;;17.50;99.90;;;;;;5024176;28;20411;-86
2022/07/18 05:59:45;;;;;;;13.35;6.88;;;17.60;99.90;;;;;;5026680;28;20040;-88
2022/07/18 06:02:11;;;;;;;8.52;6.15;;;17.70;99.90;;;;;;5022549;28;20480;-85
2022/07/18 06:04:37;;;;;;;25.20;8.48;;;17.80;99.90;;;;;;5023990;28;20105;-88
2022/07/18 06:07:03;;;;;;;13.30;6.13;;;18.00;99.90;;;;;;5025037;28;20338;-87
2022/07/18 06:09:30;;;;;;;10.65;6.40;;;18.00;99.90;;;;;;5024317;28;20048;-88
2022/07/18 06:12:01;;;;;;;10.13;5.70;;;18.10;99.90;;;;;;5028985;28;20047;-86
2022/07/18 06:14:28;;;;;;;8.30;5.43;;;18.20;99.90;;;;;;5025972;28;20071;-86
2022/07/18 06:16:53;;;;;;;9.43;5.93;;;18.40;99.90;;;;;;5024008;28;20044;-85
2022/07/18 06:19:19;;;;;;;10.00;5.13;;;18.50;99.90;;;;;;4993749;28;20043;-89
2022/07/18 06:22:04;;;;;;;12.25;5.70;;;18.60;99.90;;;;;;5029062;28;20084;-88
2022/07/18 06:24:46;;;;;;;10.48;5.32;;;18.80;99.90;;;;;;5027791;28;20045;-90
2022/07/18 06:27:36;;;;;;;10.52;4.90;;;18.50;99.90;;;;;;5027306;28;20049;-89
2022/07/18 06:30:04;;;;;;;6.60;4.13;;;19.00;99.90;;;;;;5026111;28;20067;-92
2022/07/18 06:32:39;;;;;;;6.57;4.68;;;19.20;99.90;;;;;;5028364;28;20060;-90
2022/07/18 06:35:28;;;;;;;7.68;4.40;;;19.30;99.90;;;;;;5032708;28;20056;-89
2022/07/18 06:37:54;;;;;;;6.05;4.13;;;18.70;99.90;;;;;;5012086;28;20067;-88
2022/07/18 06:40:51;;;;;;;5.97;4.20;;;19.50;99.90;;;;;;4993893;28;20084;-89
2022/07/18 06:43:19;;;;;;;5.68;4.10;;;19.70;99.90;;;;;;5033358;28;20056;-81
2022/07/18 06:45:46;;;;;;;6.85;4.07;;;19.80;99.90;;;;;;5010038;28;20049;-81
2022/07/18 06:48:13;;;;;;;6.40;3.92;;;19.80;99.90;;;;;;5008184;28;20050;-81
2022/07/18 06:50:39;;;;;;;7.03;4.10;;;19.90;99.90;;;;;;5025148;28;20103;-81
2022/07/18 06:53:04;;;;;;;6.10;4.22;;;19.90;99.90;;;;;;5004820;28;20041;-81
2022/07/18 06:55:30;;;;;;;6.43;3.92;;;20.00;99.90;;;;;;4985521;28;20061;-81
2022/07/18 06:57:56;;;;;;;6.13;4.00;;;20.10;99.90;;;;;;4985557;28;20072;-82
2022/07/18 07:00:22;;;;;;;6.97;4.50;;;20.30;99.90;;;;;;4988148;28;20055;-82
2022/07/18 07:02:49;;;;;;;5.22;3.50;;;20.50;99.90;;;;;;4986233;28;20487;-82
2022/07/18 07:05:17;;;;;;;6.97;3.75;;;20.60;99.90;;;;;;5017350;28;20049;-87
2022/07/18 07:07:44;;;;;;;5.22;3.60;;;20.90;99.90;;;;;;5034523;28;20621;-81
2022/07/18 07:10:10;;;;;;;6.43;3.60;;;21.00;99.90;;;;;;5021642;28;20045;-81
2022/07/18 07:12:47;;;;;;;5.97;3.72;;;21.30;99.90;;;;;;4986427;28;20071;-81
2022/07/18 07:15:14;;;;;;;5.43;3.55;;;21.50;99.90;;;;;;5023515;28;20095;-81
2022/07/18 07:17:40;;;;;;;6.78;2.83;;;21.70;99.90;;;;;;4988448;28;20048;-82
2022/07/18 07:20:07;;;;;;;4.15;3.30;;;21.80;99.90;;;;;;5006127;28;20060;-80
2022/07/18 07:22:42;;;;;;;4.85;3.17;;;22.00;99.90;;;;;;5016524;28;20056;-81
2022/07/18 07:25:08;;;;;;;4.65;2.85;;;22.10;99.90;;;;;;5007272;28;20506;-82
2022/07/18 07:27:34;;;;;;;4.22;2.80;;;22.20;99.90;;;;;;5007815;28;20053;-82
2022/07/18 07:30:00;;;;;;;5.03;3.33;;;22.30;99.90;;;;;;5018534;28;20041;-82
2022/07/18 07:32:25;;;;;;;4.10;2.58;;;22.40;99.90;;;;;;5002514;28;20048;-81
2022/07/18 07:34:51;;;;;;;5.05;2.72;;;22.60;99.90;;;;;;5018244;28;20045;-82
2022/07/18 07:37:17;;;;;;;4.07;2.95;;;22.70;99.90;;;;;;5021040;28;20507;-82
2022/07/18 07:39:42;;;;;;;5.18;2.58;;;22.90;99.90;;;;;;5007716;28;20040;-81
2022/07/18 07:42:08;;;;;;;4.70;2.70;;;23.00;99.90;;;;;;5000730;28;20498;-81
2022/07/18 07:44:34;;;;;;;4.85;2.58;;;23.10;99.90;;;;;;5009957;28;20137;-82
2022/07/18 07:47:00;;;;;;;5.15;2.78;;;23.20;99.90;;;;;;5018812;28;20048;-81
2022/07/18 07:49:26;;;;;;;6.55;2.65;;;23.30;99.90;;;;;;5027496;28;20049;-83
2022/07/18 07:51:52;;;;;;;4.47;2.50;;;23.50;99.90;;;;;;5000786;28;20556;-83
2022/07/18 07:54:17;;;;;;;4.07;2.50;;;23.60;99.90;;;;;;5005046;28;20052;-82
2022/07/18 07:56:43;;;;;;;9.52;2.83;;;23.70;99.90;;;;;;4987795;28;20126;-83
2022/07/18 07:59:09;;;;;;;49.63;8.43;;;23.80;99.90;;;;;;5022465;28;20094;-83
2022/07/18 08:01:34;;;;;;;56.00;8.60;;;24.00;99.90;;;;;;4999069;28;20050;-83
2022/07/18 08:04:00;;;;;;;9.45;2.85;;;24.10;99.90;;;;;;5010489;28;20043;-83
2022/07/18 08:06:29;;;;;;;10.75;3.63;;;24.10;99.90;;;;;;5002711;28;20502;-84
2022/07/18 08:08:55;;;;;;;11.65;2.88;;;24.30;99.90;;;;;;5036165;28;20453;-81
2022/07/18 08:11:21;;;;;;;5.05;1.95;;;24.40;99.90;;;;;;5019529;28;21271;-79
2022/07/18 08:13:47;;;;;;;4.53;1.95;;;24.70;99.90;;;;;;5012194;28;20049;-85
2022/07/18 08:16:12;;;;;;;3.40;1.90;;;24.90;99.90;;;;;;4985347;28;20053;-80
2022/07/18 08:18:38;;;;;;;7.13;2.03;;;25.20;99.90;;;;;;4997628;28;20683;-79
2022/07/18 08:21:04;;;;;;;6.05;1.92;;;25.40;99.90;;;;;;5011739;28;20168;-81
2022/07/18 08:23:29;;;;;;;3.47;1.98;;;25.60;99.90;;;;;;5019181;28;20044;-80
2022/07/18 08:25:55;;;;;;;3.90;1.70;;;25.80;99.90;;;;;;5036704;28;20450;-81
2022/07/18 08:28:21;;;;;;;3.28;1.45;;;26.10;99.90;;;;;;5015855;28;20052;-82
2022/07/18 08:30:47;;;;;;;5.22;1.73;;;26.40;99.40;;;;;;5022669;28;20372;-82
2022/07/18 08:33:12;;;;;;;4.95;1.85;;;26.60;99.00;;;;;;5009369;28;20049;-82
2022/07/18 08:35:38;;;;;;;6.45;1.67;;;26.60;98.30;;;;;;4998354;28;20079;-81
2022/07/18 08:38:05;;;;;;;3.80;1.70;;;26.70;98.10;;;;;;5004248;28;20055;-82
2022/07/18 08:40:31;;;;;;;2.78;1.75;;;26.90;97.60;;;;;;5034172;28;20044;-81
2022/07/18 08:42:58;;;;;;;5.53;2.05;;;27.20;97.40;;;;;;5036346;28;20068;-82
2022/07/18 08:45:24;;;;;;;4.22;1.88;;;27.30;96.90;;;;;;5035550;28;20512;-82
2022/07/18 08:47:51;;;;;;;3.28;2.03;;;27.50;95.90;;;;;;4998349;28;20052;-83
2022/07/18 08:50:17;;;;;;;3.97;1.63;;;27.60;95.80;;;;;;5019159;28;20392;-82
2022/07/18 08:52:44;;;;;;;5.30;1.85;;;27.70;95.50;;;;;;5035367;28;20045;-82
2022/07/18 08:55:10;;;;;;;5.88;1.70;;;27.80;95.00;;;;;;5036468;28;20044;-82
2022/07/18 08:57:36;;;;;;;6.63;1.63;;;28.00;94.40;;;;;;4999786;28;20040;-83
2022/07/18 09:00:07;;;;;;;65.78;4.38;;;28.10;93.80;;;;;;5025290;28;20416;-83
2022/07/18 09:02:33;;;;;;;3.35;1.70;;;28.20;93.00;;;;;;5022254;28;20110;-82
2022/07/18 09:05:04;;;;;;;3.75;1.90;;;28.20;92.70;;;;;;5020152;28;20110;-82
2022/07/18 09:07:36;;;;;;;14.65;2.10;;;28.20;92.60;;;;;;5036184;28;20160;-82
2022/07/18 09:10:05;;;;;;;27.00;2.55;;;28.20;91.90;;;;;;5019829;28;20044;-83
2022/07/18 09:12:31;;;;;;;11.73;2.10;;;28.20;91.80;;;;;;5030531;28;20052;-81
2022/07/18 09:15:03;;;;;;;6.47;1.70;;;28.20;91.40;;;;;;5021060;28;20048;-82
2022/07/18 09:17:29;;;;;;;5.32;1.55;;;28.10;90.60;;;;;;5034199;28;20045;-83
2022/07/18 09:20:11;;;;;;;2.35;1.33;;;28.10;89.90;;;;;;5026032;28;20079;-82
2022/07/18 09:22:39;;;;;;;3.92;1.60;;;28.10;88.80;;;;;;5023498;28;20041;-82
2022/07/18 09:25:05;;;;;;;3.83;1.45;;;28.20;90.20;;;;;;5019710;28;20087;-82
2022/07/18 09:27:44;;;;;;;4.88;1.45;;;28.30;90.20;;;;;;5024044;28;20068;-82
2022/07/18 09:30:11;;;;;;;4.43;1.40;;;28.40;87.40;;;;;;5021884;28;20041;-81
2022/07/18 09:32:40;;;;;;;3.60;1.40;;;28.40;86.80;;;;;;5017817;28;20044;-83
2022/07/18 09:35:07;;;;;;;3.45;1.60;;;28.40;86.00;;;;;;5029378;28;20450;-81
2022/07/18 09:37:33;;;;;;;3.65;1.42;;;28.50;86.90;;;;;;5043515;28;20044;-81
2022/07/18 09:40:20;;;;;;;3.70;1.70;;;28.60;84.40;;;;;;5023086;28;20518;-80
2022/07/18 09:42:54;;;;;;;6.35;1.75;;;28.70;80.30;;;;;;5025283;28;20494;-80
2022/07/18 09:53:48;;;;;;;2.55;1.30;;;28.40;80.20;;;;;;5142901;23;20074;-88
2022/07/18 09:56:23;;;;;;;3.55;1.67;;;28.50;80.30;;;;;;4942055;28;20050;-90
2022/07/18 09:58:53;;;;;;;;;;;28.80;80.70;;;;;;4961171;28;20050;-91
2022/07/18 10:01:19;;;;;;;4.28;1.65;;;29.10;79.60;;;;;;4976825;28;20004;-88
2022/07/18 10:03:45;;;;;;;5.80;1.52;;;29.40;78.60;;;;;;4975443;28;20058;-87
2022/07/18 10:06:12;;;;;;;3.15;1.40;;;29.70;77.00;;;;;;4953260;28;20057;-86
2022/07/18 10:08:38;;;;;;;4.63;1.50;;;29.90;75.40;;;;;;4969711;28;20054;-87
2022/07/18 10:11:05;;;;;;;5.45;1.80;;;29.90;73.10;;;;;;4967216;28;20047;-88
2022/07/18 10:13:33;;;;;;;2.58;1.38;;;29.70;71.20;;;;;;4941665;28;20053;-88
2022/07/18 10:15:59;;;;;;;3.30;1.30;;;29.60;70.20;;;;;;4967796;28;20488;-87
2022/07/18 10:18:29;;;;;;;3.95;1.40;;;29.50;69.60;;;;;;4969621;28;20073;-86
2022/07/18 10:21:01;;;;;;;4.05;1.50;;;29.40;69.50;;;;;;4969796;28;20047;-85
2022/07/18 10:23:31;;;;;;;3.78;1.40;;;29.40;68.40;;;;;;4960640;28;20046;-86
2022/07/18 10:26:17;;;;;;;2.95;1.38;;;29.50;70.30;;;;;;4959016;28;20456;-85
2022/07/18 10:28:54;;;;;;;;;;;29.50;69.70;;;;;;4956794;28;20050;-85
2022/07/18 10:31:21;;;;;;;5.18;1.60;;;29.50;69.00;;;;;;4966750;28;19929;-83
2022/07/18 10:33:48;;;;;;;2.95;1.45;;;29.50;70.90;;;;;;4957829;28;20050;-85
2022/07/18 10:36:18;;;;;;;4.00;1.40;;;29.70;70.30;;;;;;4974614;28;20575;-84
2022/07/18 10:39:08;;;;;;;5.53;1.70;;;29.90;70.60;;;;;;4972544;28;20038;-85
2022/07/18 10:42:01;;;;;;;4.43;1.67;;;30.20;70.00;;;;;;4959456;28;20050;-86
2022/07/18 10:44:30;;;;;;;4.75;1.77;;;30.50;67.30;;;;;;4954526;28;20058;-86
2022/07/18 10:49:52;;;;;;;4.80;1.60;;;30.90;66.20;;;;;;4974135;28;20050;-85
2022/07/18 10:52:30;;;;;;;7.40;1.88;;;30.90;67.10;;;;;;4954662;28;20059;-84
2022/07/18 10:55:05;;;;;;;4.97;1.70;;;30.90;67.20;;;;;;4969290;28;20580;-85
2022/07/18 10:57:32;;;;;;;;;;;30.90;66.80;;;;;;4954257;28;20058;-85
2022/07/18 11:00:13;;;;;;;4.88;1.77;;;30.80;66.30;;;;;;4954562;28;20009;-87
2022/07/18 11:02:46;;;;;;;3.67;1.35;;;30.90;66.40;;;;;;4955849;28;20053;-89
2022/07/18 11:05:24;;;;;;;3.45;1.30;;;31.10;66.30;;;;;;4970815;28;20053;-88
2022/07/18 11:07:59;;;;;;;3.85;1.33;;;31.40;64.90;;;;;;4962674;28;20493;-88
2022/07/18 11:11:01;;;;;;;4.13;1.75;;;31.50;63.90;;;;;;4955324;28;20051;-89
2022/07/18 11:13:32;;;;;;;4.30;1.50;;;31.80;64.40;;;;;;4954392;28;20066;-87
2022/07/18 11:16:08;;;;;;;2.90;1.70;;;31.80;63.20;;;;;;4954291;28;20410;-89
2022/07/18 11:18:40;;;;;;;4.95;1.70;;;31.70;62.40;;;;;;4954317;28;20078;-89
2022/07/18 11:21:25;;;;;;;3.58;1.60;;;31.50;62.50;;;;;;4962790;28;20046;-89
2022/07/18 11:23:53;;;;;;;3.50;1.48;;;31.50;62.30;;;;;;4946654;28;20505;-90
2022/07/18 11:26:21;;;;;;;5.93;1.67;;;31.50;63.70;;;;;;4931605;28;20050;-89
2022/07/18 11:28:48;;;;;;;4.32;1.90;;;31.40;62.90;;;;;;4931362;28;20054;-84
2022/07/18 11:31:15;;;;;;;3.95;1.70;;;31.20;62.50;;;;;;4961180;28;20053;-85
2022/07/18 11:33:49;;;;;;;4.43;1.80;;;30.90;62.30;;;;;;4969121;28;20059;-85
2022/07/18 11:36:19;;;;;;;5.07;1.80;;;30.80;61.60;;;;;;4953151;28;20090;-84
2022/07/18 11:39:03;;;;;;;3.53;1.60;;;30.70;62.50;;;;;;4969343;28;20053;-84
2022/07/18 11:41:29;;;;;;;5.72;1.70;;;30.70;62.10;;;;;;4969403;28;20050;-84
2022/07/18 11:43:56;;;;;;;6.10;1.70;;;30.60;62.50;;;;;;4944504;28;20101;-85
2022/07/18 11:46:24;;;;;;;6.38;2.00;;;30.60;62.30;;;;;;4952650;28;20093;-84
2022/07/18 11:49:05;;;;;;;3.97;1.58;;;30.50;62.00;;;;;;4960496;28;20136;-83
2022/07/18 11:51:40;;;;;;;5.65;1.90;;;30.40;62.20;;;;;;4937233;28;20057;-84
2022/07/18 11:54:05;;;;;;;;;;;30.20;61.90;;;;;;4971943;28;20501;-84
2022/07/18 11:56:32;;;;;;;3.33;1.95;;;30.00;61.60;;;;;;4972700;28;20028;-83
2022/07/18 11:58:58;;;;;;;4.80;1.67;;;29.80;62.60;;;;;;4956492;28;20085;-84
2022/07/18 12:01:32;;;;;;;3.92;1.70;;;29.70;62.50;;;;;;4956559;28;20053;-84
2022/07/18 12:03:58;;;;;;;5.13;1.80;;;29.70;62.40;;;;;;4956164;28;20404;-84
2022/07/18 12:06:27;;;;;;;4.97;1.95;;;29.70;62.10;;;;;;4956971;28;20523;-84
2022/07/18 12:09:08;;;;;;;6.25;2.10;;;29.80;62.00;;;;;;4947595;28;20050;-84
2022/07/18 12:11:36;;;;;;;4.35;1.65;;;29.80;61.70;;;;;;4956864;28;20070;-84
2022/07/18 12:14:14;;;;;;;5.85;2.15;;;29.70;61.40;;;;;;4972358;28;20137;-85
2022/07/18 12:16:46;;;;;;;5.05;2.13;;;29.60;61.50;;;;;;4957278;28;20065;-84
2022/07/18 12:19:24;;;;;;;4.93;1.88;;;29.40;61.90;;;;;;4971539;28;20048;-84
2022/07/18 12:21:54;;;;;;;6.00;1.88;;;29.30;62.40;;;;;;4953688;28;20173;-85
2022/07/18 12:24:39;;;;;;;5.70;1.92;;;29.10;62.60;;;;;;4952980;28;20054;-85
2022/07/18 12:27:23;;;;;;;5.63;2.05;;;28.90;62.90;;;;;;4966512;28;20050;-83
2022/07/18 12:30:08;;;;;;;3.40;1.88;;;29.10;62.90;;;;;;4946635;28;20121;-84
2022/07/18 12:32:38;;;;;;;4.50;1.67;;;29.20;62.50;;;;;;4967949;28;20057;-84
2022/07/18 12:35:14;;;;;;;4.47;2.35;;;29.10;62.70;;;;;;4967912;28;20046;-84
2022/07/18 12:37:40;;;;;;;5.68;2.00;;;29.00;62.90;;;;;;4951457;28;20141;-85
2022/07/18 12:40:09;;;;;;;4.18;2.55;;;28.90;63.40;;;;;;4966917;28;20058;-84
2022/07/18 12:42:40;;;;;;;6.20;3.30;;;28.90;63.00;;;;;;4967809;28;20042;-84
2022/07/18 12:45:07;;;;;;;6.50;2.53;;;29.00;62.50;;;;;;4952191;28;20042;-85
2022/07/18 12:47:33;;;;;;;4.63;2.28;;;29.10;62.70;;;;;;4943704;28;20092;-85
2022/07/18 12:49:59;;;;;;;5.13;2.58;;;29.20;62.70;;;;;;4952338;28;20043;-84
2022/07/18 12:52:25;;;;;;;3.45;2.17;;;29.20;62.50;;;;;;4967743;28;20050;-84
2022/07/18 12:54:51;;;;;;;4.15;2.13;;;29.10;61.70;;;;;;4951547;28;20046;-85
2022/07/18 12:57:18;;;;;;;5.45;1.88;;;29.00;61.70;;;;;;4967166;28;20112;-83
2022/07/18 12:59:45;;;;;;;3.63;1.83;;;29.20;61.70;;;;;;4952897;28;20116;-83
2022/07/18 13:02:12;;;;;;;4.95;2.33;;;29.20;61.90;;;;;;4968679;28;20607;-83
2022/07/18 13:04:38;;;;;;;6.00;2.05;;;29.60;61.90;;;;;;4947509;28;20088;-84
2022/07/18 13:07:04;;;;;;;3.00;1.42;;;30.00;61.30;;;;;;4950168;28;20121;-84
2022/07/18 13:09:30;;;;;;;4.18;1.55;;;29.90;60.90;;;;;;4932207;28;20587;-85
2022/07/18 13:11:55;;;;;;;3.75;1.67;;;29.90;61.50;;;;;;4967997;28;20070;-84